createdAt,value
2019-05-09T00:04:03.356Z,100.00
2019-05-09T00:06:33.808Z,100.00
2019-05-09T00:09:03.591Z,100.00
2019-05-09T00:11:33.561Z,100.00
2019-05-09T00:14:01.620Z,100.00
2019-05-09T00:16:29.902Z,100.00
2019-05-09T00:18:58.169Z,100.00
2019-05-09T00:21:45.559Z,100.00
2019-05-09T00:24:33.377Z,100.00
2019-05-09T00:27:03.651Z,100.00
2019-05-09T00:29:52.997Z,100.00
2019-05-09T00:32:39.849Z,100.00
2019-05-09T00:35:27.299Z,100.00
2019-05-09T00:40:34.540Z,100.00
2019-05-09T00:43:03.889Z,100.00
2019-05-09T00:45:54.086Z,100.00
2019-05-09T00:51:03.277Z,100.00
2019-05-09T00:53:30.969Z,100.00
2019-05-09T00:55:59.238Z,100.00
2019-05-09T00:58:27.510Z,100.00
2019-05-09T01:01:35.817Z,100.00
2019-05-09T01:04:38.160Z,100.00
2019-05-09T01:07:06.433Z,100.00
2019-05-09T01:09:34.713Z,100.00
2019-05-09T01:12:04.141Z,100.00
2019-05-09T01:14:33.891Z,100.00
2019-05-09T01:17:04.381Z,100.00
2019-05-09T01:22:03.745Z,100.00
2019-05-09T01:24:33.779Z,100.00
2019-05-09T01:27:03.634Z,100.00
2019-05-09T01:29:33.729Z,100.00
2019-05-09T01:32:36.798Z,100.00
2019-05-09T01:35:39.296Z,100.00
2019-05-09T01:40:53.416Z,100.00
2019-05-09T01:43:21.640Z,100.00
2019-05-09T01:45:49.971Z,100.00
2019-05-09T01:48:18.190Z,100.00
2019-05-09T01:50:46.466Z,100.00
2019-05-09T01:56:03.950Z,100.00
2019-05-09T01:58:34.510Z,100.00
2019-05-09T02:03:44.292Z,100.00
2019-05-09T02:09:00.058Z,100.00
2019-05-09T02:12:26.173Z,100.00
2019-05-09T02:15:13.553Z,100.00
2019-05-09T02:20:32.736Z,100.00
2019-05-09T02:23:00.771Z,100.00
2019-05-09T02:25:29.051Z,100.00
2019-05-09T02:27:57.321Z,100.00
2019-05-09T02:30:25.731Z,100.00
2019-05-09T02:32:54.705Z,100.00
2019-05-09T02:35:23.967Z,100.00
2019-05-09T02:37:52.237Z,100.00
2019-05-09T02:40:20.588Z,100.00
2019-05-09T02:42:49.236Z,100.00
2019-05-09T02:47:59.004Z,100.00
2019-05-09T02:50:28.683Z,100.00
2019-05-09T02:52:59.077Z,100.00
2019-05-09T02:55:28.875Z,100.00
2019-05-09T03:00:59.441Z,100.00
2019-05-09T03:03:48.062Z,100.00
2019-05-09T03:06:15.075Z,100.00
2019-05-09T03:08:43.348Z,100.00
2019-05-09T03:11:11.621Z,100.00
2019-05-09T03:13:40.474Z,100.00
2019-05-09T03:24:39.367Z,100.00
2019-05-09T03:32:38.727Z,100.00
2019-05-09T03:35:48.103Z,100.00
2019-05-09T03:38:17.941Z,100.00
2019-05-09T03:40:47.654Z,100.00
2019-05-09T03:43:18.205Z,100.00
2019-05-09T03:46:07.685Z,100.00
2019-05-09T03:48:54.314Z,100.00
2019-05-09T03:51:22.592Z,100.00
2019-05-09T03:54:10.193Z,100.00
2019-05-09T03:56:57.588Z,100.00
2019-05-09T03:59:27.878Z,100.00
2019-05-09T04:01:55.844Z,100.00
2019-05-09T04:04:38.350Z,100.00
2019-05-09T04:07:08.439Z,100.00
2019-05-09T04:09:37.533Z,100.00
2019-05-09T04:12:07.551Z,100.00
2019-05-09T04:17:15.595Z,100.00
2019-05-09T04:19:43.915Z,100.00
2019-05-09T04:22:12.143Z,100.00
2019-05-09T04:24:40.498Z,100.00
2019-05-09T04:29:57.738Z,100.00
2019-05-09T04:32:27.364Z,100.00
2019-05-09T04:34:57.816Z,100.00
2019-05-09T04:37:28.107Z,100.00
2019-05-09T04:39:59.502Z,100.00
2019-05-09T04:42:28.250Z,100.00
2019-05-09T04:45:15.131Z,100.00
2019-05-09T04:48:02.756Z,100.00
2019-05-09T04:50:31.030Z,100.00
2019-05-09T04:52:59.317Z,100.00
2019-05-09T04:58:09.087Z,100.00
2019-05-09T05:00:57.302Z,100.00
2019-05-09T05:03:25.661Z,100.00
2019-05-09T05:05:53.975Z,100.00
2019-05-09T05:08:22.244Z,100.00
2019-05-09T05:10:50.519Z,100.00
2019-05-09T05:13:26.317Z,100.00
2019-05-09T05:15:48.776Z,100.00
2019-05-09T05:18:17.415Z,100.00
2019-05-09T05:20:48.185Z,100.00
2019-05-09T05:23:38.095Z,100.00
2019-05-09T05:26:06.251Z,100.00
2019-05-09T05:28:34.533Z,100.00
2019-05-09T05:31:02.806Z,100.00
2019-05-09T05:33:53.787Z,100.00
2019-05-09T05:38:59.224Z,100.00
2019-05-09T05:41:28.499Z,100.00
2019-05-09T05:43:58.119Z,100.00
2019-05-09T05:46:50.139Z,100.00
2019-05-09T05:49:18.598Z,100.00
2019-05-09T05:52:07.905Z,100.00
2019-05-09T05:54:37.682Z,100.00
2019-05-09T05:57:08.211Z,100.00
2019-05-09T05:59:40.428Z,100.00
2019-05-09T06:02:08.325Z,100.00
2019-05-09T06:04:37.930Z,100.00
2019-05-09T06:07:07.703Z,100.00
2019-05-09T06:09:37.728Z,100.00
2019-05-09T06:12:25.028Z,100.00
2019-05-09T06:14:53.301Z,100.00
2019-05-09T06:17:21.558Z,100.00
2019-05-09T06:19:49.834Z,100.00
2019-05-09T06:22:18.484Z,100.00
2019-05-09T06:24:48.122Z,100.00
2019-05-09T06:27:18.251Z,100.00
2019-05-09T06:29:47.722Z,100.00
2019-05-09T06:32:18.738Z,100.00
2019-05-09T06:34:47.738Z,100.00
2019-05-09T06:37:18.384Z,100.00
2019-05-09T06:39:48.468Z,100.00
2019-05-09T06:45:58.092Z,100.00
2019-05-09T06:48:28.394Z,100.00
2019-05-09T06:50:57.674Z,100.00
2019-05-09T06:53:27.265Z,100.00
2019-05-09T06:55:57.991Z,100.00
2019-05-09T06:58:45.137Z,100.00
2019-05-09T07:01:32.574Z,100.00
2019-05-09T07:04:19.997Z,100.00
2019-05-09T07:12:07.860Z,100.00
2019-05-09T07:17:15.176Z,100.00
2019-05-09T07:19:44.117Z,100.00
2019-05-09T07:22:32.575Z,100.00
2019-05-09T07:25:19.984Z,100.00
2019-05-09T07:27:48.545Z,100.00
2019-05-09T07:30:57.327Z,100.00
2019-05-09T07:36:14.629Z,100.00
2019-05-09T07:38:42.897Z,100.00
2019-05-09T07:41:11.183Z,100.00
2019-05-09T07:43:39.646Z,100.00
2019-05-09T07:46:28.526Z,100.00
2019-05-09T07:49:17.577Z,100.00
2019-05-09T07:51:47.739Z,100.00
2019-05-09T07:54:24.852Z,100.00
2019-05-09T07:56:48.490Z,100.00
2019-05-09T07:59:18.084Z,100.00
2019-05-09T08:01:48.476Z,100.00
2019-05-09T08:04:18.257Z,100.00
2019-05-09T08:06:48.615Z,100.00
2019-05-09T08:09:18.505Z,100.00
2019-05-09T08:11:48.318Z,100.00
2019-05-09T08:14:29.439Z,100.00
2019-05-09T08:17:28.632Z,100.00
2019-05-09T08:19:58.330Z,100.00
2019-05-09T08:22:31.868Z,100.00
2019-05-09T08:24:57.630Z,100.00
2019-05-09T08:27:30.141Z,100.00
2019-05-09T08:29:58.380Z,100.00
2019-05-09T08:32:28.663Z,100.00
2019-05-09T08:34:57.815Z,100.00
2019-05-09T08:37:28.295Z,100.00
2019-05-09T08:39:57.814Z,100.00
2019-05-09T08:42:26.226Z,100.00
2019-05-09T08:44:54.497Z,100.00
2019-05-09T08:47:22.769Z,100.00
2019-05-09T08:52:30.005Z,100.00
2019-05-09T08:57:48.176Z,100.00
2019-05-09T09:00:18.917Z,100.00
2019-05-09T09:02:48.214Z,100.00
2019-05-09T09:05:18.676Z,100.00
2019-05-09T09:07:48.555Z,100.00
2019-05-09T09:10:18.698Z,100.00
2019-05-09T09:12:47.887Z,100.00
2019-05-09T09:15:18.030Z,100.00
2019-05-09T09:17:49.118Z,100.00
2019-05-09T09:20:18.174Z,100.00
2019-05-09T09:22:48.095Z,100.00
2019-05-09T09:25:18.373Z,100.00
2019-05-09T09:27:50.864Z,100.00
2019-05-09T09:30:51.541Z,100.00
2019-05-09T09:33:19.825Z,100.00
2019-05-09T09:35:48.883Z,100.00
2019-05-09T09:38:18.107Z,100.00
2019-05-09T09:40:47.760Z,100.00
2019-05-09T09:43:17.631Z,100.00
2019-05-09T09:45:48.102Z,100.00
2019-05-09T09:48:18.084Z,100.00
2019-05-09T09:50:50.917Z,100.00
2019-05-09T09:53:18.466Z,100.00
2019-05-09T09:55:47.624Z,100.00
2019-05-09T09:58:19.048Z,100.00
2019-05-09T10:01:28.768Z,100.00
2019-05-09T10:06:48.082Z,100.00
2019-05-09T10:09:17.455Z,100.00
2019-05-09T10:11:48.111Z,100.00
2019-05-09T10:17:18.014Z,100.00
2019-05-09T10:20:06.379Z,94.55
2019-05-09T10:22:34.669Z,95.46
2019-05-09T10:25:02.931Z,93.97
2019-05-09T10:27:31.201Z,97.71
2019-05-09T10:29:59.651Z,94.65
2019-05-09T10:32:28.898Z,92.37
2019-05-09T10:34:58.217Z,91.05
2019-05-09T10:37:48.556Z,94.33
2019-05-09T10:40:53.299Z,89.47
2019-05-09T10:46:19.468Z,89.52
2019-05-09T10:51:26.885Z,89.62
2019-05-09T10:53:55.180Z,89.01
2019-05-09T10:56:23.451Z,83.45
2019-05-09T10:58:51.716Z,84.13
2019-05-09T11:01:19.988Z,82.48
2019-05-09T11:03:48.627Z,77.20
2019-05-09T11:06:18.731Z,78.29
2019-05-09T11:08:48.233Z,79.25
2019-05-09T11:11:18.347Z,80.62
2019-05-09T11:13:48.285Z,79.88
2019-05-09T11:16:18.332Z,79.10
2019-05-09T11:18:48.306Z,83.42
2019-05-09T11:21:18.874Z,82.90
2019-05-09T11:23:48.807Z,83.08
2019-05-09T11:26:17.928Z,83.61
2019-05-09T11:28:46.529Z,85.09
2019-05-09T11:31:15.748Z,87.37
2019-05-09T11:33:44.841Z,90.55
2019-05-09T11:36:13.499Z,95.10
2019-05-09T11:38:44.090Z,94.30
2019-05-09T11:41:13.114Z,94.90
2019-05-09T11:43:41.391Z,93.79
2019-05-09T11:46:10.470Z,92.71
2019-05-09T11:48:39.670Z,90.96
2019-05-09T11:51:08.991Z,90.30
2019-05-09T11:53:40.164Z,88.02
2019-05-09T11:56:08.380Z,79.52
2019-05-09T11:58:49.905Z,79.30
2019-05-09T12:01:18.885Z,79.30
2019-05-09T12:03:52.044Z,74.49
2019-05-09T12:06:19.996Z,76.69
2019-05-09T12:08:48.469Z,73.36
2019-05-09T12:11:18.708Z,73.16
2019-05-09T12:13:48.895Z,73.73
2019-05-09T12:16:18.925Z,74.98
2019-05-09T12:18:48.989Z,75.07
2019-05-09T12:21:19.459Z,76.02
2019-05-09T12:23:49.123Z,80.32
2019-05-09T12:26:18.382Z,81.04
2019-05-09T12:28:48.270Z,78.27
2019-05-09T12:31:18.122Z,81.39
2019-05-09T12:33:48.419Z,81.82
2019-05-09T12:36:28.889Z,77.21
2019-05-09T12:38:59.144Z,76.72
2019-05-09T12:41:31.672Z,74.39
2019-05-09T12:43:57.489Z,74.60
2019-05-09T12:46:28.440Z,75.61
2019-05-09T12:48:59.068Z,76.30
2019-05-09T12:51:28.144Z,77.44
2019-05-09T12:53:57.812Z,73.24
2019-05-09T12:56:28.605Z,76.16
2019-05-09T12:58:57.864Z,76.33
2019-05-09T13:01:27.093Z,76.26
2019-05-09T13:03:58.063Z,72.96
2019-05-09T13:06:25.369Z,73.83
2019-05-09T13:08:53.639Z,73.58
2019-05-09T13:11:21.913Z,69.91
2019-05-09T13:13:50.181Z,68.67
2019-05-09T13:16:45.598Z,70.37
2019-05-09T13:19:27.921Z,69.30
2019-05-09T13:21:58.783Z,66.81
2019-05-09T13:24:28.343Z,69.45
2019-05-09T13:27:09.205Z,67.17
2019-05-09T13:29:38.213Z,69.40
2019-05-09T13:32:08.794Z,67.80
2019-05-09T13:34:38.037Z,65.61
2019-05-09T13:37:09.142Z,67.14
2019-05-09T13:39:39.741Z,67.39
2019-05-09T13:42:08.147Z,65.79
2019-05-09T13:44:41.220Z,66.51
2019-05-09T13:47:10.654Z,66.67
2019-05-09T13:49:39.500Z,65.58
2019-05-09T13:52:20.903Z,67.12
2019-05-09T13:54:49.153Z,67.12
2019-05-09T13:57:18.867Z,65.91
2019-05-09T13:59:48.595Z,66.25
2019-05-09T14:02:18.747Z,62.85
2019-05-09T14:04:48.659Z,62.94
2019-05-09T14:07:19.254Z,60.95
2019-05-09T14:09:48.361Z,58.66
2019-05-09T14:12:17.761Z,60.26
2019-05-09T14:14:47.412Z,60.69
2019-05-09T14:17:18.757Z,59.16
2019-05-09T14:19:50.193Z,61.73
2019-05-09T14:22:17.941Z,61.27
2019-05-09T14:24:45.633Z,62.73
2019-05-09T14:27:13.908Z,62.57
2019-05-09T14:29:42.156Z,61.34
2019-05-09T14:32:10.429Z,62.29
2019-05-09T14:34:42.371Z,61.36
2019-05-09T14:37:09.633Z,63.17
2019-05-09T14:39:54.516Z,62.74
2019-05-09T14:42:09.283Z,62.29
2019-05-09T14:44:38.635Z,61.47
2019-05-09T14:47:08.089Z,63.22
2019-05-09T14:49:43.094Z,62.42
2019-05-09T14:52:08.084Z,64.96
2019-05-09T14:54:39.206Z,61.69
2019-05-09T14:57:09.661Z,61.09
2019-05-09T15:00:18.838Z,63.12
2019-05-09T15:02:48.945Z,62.31
2019-05-09T15:05:30.281Z,67.04
2019-05-09T15:07:59.419Z,67.04
2019-05-09T15:10:28.530Z,66.31
2019-05-09T15:12:58.525Z,64.41
2019-05-09T15:15:32.021Z,63.76
2019-05-09T15:18:17.599Z,64.71
2019-05-09T15:20:47.820Z,64.46
2019-05-09T15:23:15.872Z,62.71
2019-05-09T15:25:44.135Z,64.35
2019-05-09T15:28:12.418Z,63.72
2019-05-09T15:30:40.674Z,65.14
2019-05-09T15:33:08.951Z,65.92
2019-05-09T15:35:39.118Z,66.20
2019-05-09T15:38:08.615Z,67.27
2019-05-09T15:40:38.642Z,65.74
2019-05-09T15:43:08.307Z,66.28
2019-05-09T15:45:58.192Z,68.77
2019-05-09T15:48:27.462Z,72.63
2019-05-09T15:50:58.249Z,75.93
2019-05-09T15:53:27.833Z,76.21
2019-05-09T15:55:58.614Z,77.72
2019-05-09T15:58:28.590Z,77.35
2019-05-09T16:00:58.651Z,77.01
2019-05-09T16:03:27.900Z,77.50
2019-05-09T16:05:58.434Z,77.27
2019-05-09T16:08:28.675Z,76.30
2019-05-09T16:10:58.126Z,75.97
2019-05-09T16:13:28.301Z,76.28
2019-05-09T16:15:57.599Z,76.91
2019-05-09T16:18:28.609Z,78.92
2019-05-09T16:20:58.042Z,79.09
2019-05-09T16:23:28.854Z,81.27
2019-05-09T16:25:58.638Z,84.49
2019-05-09T16:28:26.253Z,86.46
2019-05-09T16:30:54.516Z,85.53
2019-05-09T16:33:22.800Z,87.13
2019-05-09T16:35:52.833Z,84.81
2019-05-09T16:38:21.055Z,86.75
2019-05-09T16:41:08.660Z,84.62
2019-05-09T16:43:39.198Z,84.87
2019-05-09T16:46:07.574Z,82.69
2019-05-09T16:48:36.911Z,83.75
2019-05-09T16:51:07.746Z,84.10
2019-05-09T16:53:35.230Z,82.77
2019-05-09T16:56:03.481Z,83.55
2019-05-09T16:58:32.104Z,83.89
2019-05-09T17:03:41.305Z,82.39
2019-05-09T17:06:09.559Z,80.55
2019-05-09T17:08:38.566Z,82.64
2019-05-09T17:11:07.825Z,81.76
2019-05-09T17:13:36.111Z,82.74
2019-05-09T17:16:04.367Z,81.74
2019-05-09T17:18:32.642Z,81.56
2019-05-09T17:21:24.201Z,83.07
2019-05-09T17:23:50.039Z,81.46
2019-05-09T17:26:58.335Z,79.82
2019-05-09T17:29:28.049Z,79.16
2019-05-09T17:31:58.406Z,78.59
2019-05-09T17:34:28.659Z,77.10
2019-05-09T17:36:56.635Z,78.56
2019-05-09T17:39:24.897Z,77.49
2019-05-09T17:41:53.166Z,77.35
2019-05-09T17:44:21.445Z,77.41
2019-05-09T17:46:49.710Z,76.62
2019-05-09T17:49:17.991Z,77.64
2019-05-09T17:51:48.221Z,77.59
2019-05-09T17:54:18.257Z,80.30
2019-05-09T17:56:48.255Z,79.82
2019-05-09T17:59:18.462Z,78.58
2019-05-09T18:01:48.231Z,82.16
2019-05-09T18:04:17.942Z,84.18
2019-05-09T18:06:48.676Z,83.02
2019-05-09T18:09:18.783Z,83.50
2019-05-09T18:11:48.285Z,83.76
2019-05-09T18:14:18.534Z,83.31
2019-05-09T18:16:47.815Z,82.74
2019-05-09T18:19:17.845Z,83.74
2019-05-09T18:22:19.926Z,84.85
2019-05-09T18:25:08.313Z,86.01
2019-05-09T18:27:37.942Z,86.01
2019-05-09T18:30:41.260Z,85.22
2019-05-09T18:35:48.458Z,87.83
2019-05-09T18:38:38.602Z,85.73
2019-05-09T18:41:07.946Z,86.62
2019-05-09T18:43:36.052Z,86.31
2019-05-09T18:46:04.319Z,86.98
2019-05-09T18:48:32.592Z,88.32
2019-05-09T18:51:00.871Z,87.56
2019-05-09T18:53:29.126Z,88.32
2019-05-09T18:55:57.398Z,88.88
2019-05-09T18:58:25.676Z,86.52
2019-05-09T19:03:55.525Z,88.16
2019-05-09T19:06:23.786Z,89.98
2019-05-09T19:08:52.048Z,91.30
2019-05-09T19:11:20.309Z,91.73
2019-05-09T19:13:48.616Z,92.75
2019-05-09T19:16:35.981Z,93.36
2019-05-09T19:22:06.398Z,93.10
2019-05-09T19:24:32.411Z,95.10
2019-05-09T19:27:00.704Z,95.08
2019-05-09T19:29:28.954Z,97.31
2019-05-09T19:31:57.208Z,98.70
2019-05-09T19:34:25.483Z,98.45
2019-05-09T19:36:53.760Z,98.87
2019-05-09T19:39:22.021Z,98.76
2019-05-09T19:41:50.293Z,98.77
2019-05-09T19:44:18.554Z,99.21
2019-05-09T19:46:46.833Z,100.00
2019-05-09T19:49:15.100Z,100.00
2019-05-09T19:51:43.362Z,100.00
2019-05-09T19:54:11.657Z,100.00
2019-05-09T19:56:39.929Z,100.00
2019-05-09T19:59:08.724Z,100.00
2019-05-09T20:01:38.214Z,100.00
2019-05-09T20:04:06.645Z,100.00
2019-05-09T20:06:34.907Z,100.00
2019-05-09T20:12:30.423Z,100.00
2019-05-09T20:14:58.697Z,100.00
2019-05-09T20:17:26.978Z,100.00
2019-05-09T20:19:55.239Z,100.00
2019-05-09T20:22:23.570Z,100.00
2019-05-09T20:24:51.787Z,100.00
2019-05-09T20:27:20.060Z,100.00
2019-05-09T20:29:48.337Z,100.00
2019-05-09T20:32:16.598Z,100.00
2019-05-09T20:34:44.891Z,100.00
2019-05-09T20:37:13.160Z,100.00
2019-05-09T20:39:41.647Z,100.00
2019-05-09T20:42:10.115Z,100.00
2019-05-09T20:44:38.560Z,100.00
2019-05-09T20:47:07.041Z,100.00
2019-05-09T20:49:35.469Z,100.00
2019-05-09T20:52:03.930Z,100.00
2019-05-09T20:54:32.378Z,100.00
2019-05-09T20:57:00.861Z,100.00
2019-05-09T20:59:29.297Z,100.00
2019-05-09T21:01:57.750Z,100.00
2019-05-09T21:04:26.234Z,100.00
2019-05-09T21:06:54.690Z,100.00
2019-05-09T21:09:23.158Z,100.00
2019-05-09T21:11:51.614Z,100.00
2019-05-09T21:14:20.068Z,100.00
2019-05-09T21:16:48.517Z,100.00
2019-05-09T21:19:16.990Z,100.00
2019-05-09T21:21:45.445Z,100.00
2019-05-09T21:24:13.891Z,100.00
2019-05-09T21:26:42.351Z,100.00
2019-05-09T21:29:10.813Z,100.00
2019-05-09T21:31:39.267Z,100.00
2019-05-09T21:34:07.725Z,100.00
2019-05-09T21:36:36.003Z,100.00
2019-05-09T21:39:44.302Z,100.00
2019-05-09T21:42:12.565Z,100.00
2019-05-09T21:44:40.842Z,100.00
2019-05-09T21:47:09.110Z,100.00
2019-05-09T21:49:37.377Z,100.00
2019-05-09T21:52:05.651Z,100.00
2019-05-09T21:54:33.909Z,100.00
2019-05-09T21:57:02.188Z,100.00
2019-05-09T21:59:30.468Z,100.00
2019-05-09T22:01:58.868Z,100.00
2019-05-09T22:04:27.138Z,100.00
2019-05-09T22:06:55.393Z,100.00
2019-05-09T22:09:23.646Z,100.00
2019-05-09T22:11:51.916Z,100.00
2019-05-09T22:14:20.200Z,100.00
2019-05-09T22:19:27.403Z,100.00
2019-05-09T22:21:55.691Z,100.00
2019-05-09T22:24:23.954Z,100.00
2019-05-09T22:26:52.235Z,100.00
2019-05-09T22:29:20.498Z,100.00
2019-05-09T22:31:48.807Z,100.00
2019-05-09T22:34:17.064Z,100.00
2019-05-09T22:36:45.323Z,100.00
2019-05-09T22:39:13.607Z,100.00
2019-05-09T22:41:41.867Z,100.00
2019-05-09T22:44:10.142Z,100.00
2019-05-09T22:46:38.407Z,100.00
2019-05-09T22:49:06.684Z,100.00
2019-05-09T22:51:34.942Z,100.00
2019-05-09T22:54:12.197Z,100.00
2019-05-09T22:56:33.230Z,100.00
2019-05-09T22:59:01.749Z,100.00
2019-05-09T23:01:30.031Z,100.00
2019-05-09T23:04:17.625Z,100.00
2019-05-09T23:06:45.897Z,100.00
2019-05-09T23:09:14.179Z,100.00
2019-05-09T23:11:42.455Z,100.00
2019-05-09T23:14:10.730Z,100.00
2019-05-09T23:19:27.953Z,100.00
2019-05-09T23:21:56.224Z,100.00
2019-05-09T23:29:52.391Z,100.00
2019-05-09T23:34:59.619Z,100.00
2019-05-09T23:37:27.897Z,100.00
2019-05-09T23:42:35.124Z,100.00
2019-05-09T23:48:05.008Z,100.00
2019-05-09T23:50:33.268Z,100.00
2019-05-09T23:53:01.535Z,100.00
2019-05-09T23:55:48.916Z,100.00
2019-05-09T23:58:36.311Z,100.00
